createdAt,value
2022-12-04T00:02:27.292Z,8.10
2022-12-04T00:05:12.477Z,7.83
2022-12-04T00:07:57.836Z,8.10
2022-12-04T00:10:44.110Z,7.90
2022-12-04T00:13:29.338Z,7.77
2022-12-04T00:16:17.416Z,8.30
2022-12-04T00:19:02.908Z,8.00
2022-12-04T00:21:49.776Z,7.40
2022-12-04T00:24:35.359Z,7.97
2022-12-04T00:27:20.543Z,6.97
2022-12-04T00:30:06.528Z,6.90
2022-12-04T00:32:51.936Z,6.83
2022-12-04T00:35:37.300Z,7.43
2022-12-04T00:38:22.478Z,7.90
2022-12-04T00:41:12.726Z,7.73
2022-12-04T00:43:59.049Z,7.77
2022-12-04T00:46:44.154Z,7.90
2022-12-04T00:49:29.464Z,7.40
2022-12-04T00:52:14.689Z,7.40
2022-12-04T00:54:59.992Z,7.00
2022-12-04T00:57:45.415Z,6.70
2022-12-04T01:00:30.784Z,6.67
2022-12-04T01:03:16.162Z,7.60
2022-12-04T01:06:01.836Z,7.33
2022-12-04T01:08:48.137Z,6.60
2022-12-04T01:11:34.435Z,7.37
2022-12-04T01:14:19.782Z,7.43
2022-12-04T01:17:05.046Z,7.10
2022-12-04T01:19:50.366Z,7.53
2022-12-04T01:22:35.715Z,7.50
2022-12-04T01:25:21.141Z,6.97
2022-12-04T01:28:06.334Z,7.80
2022-12-04T01:31:09.118Z,7.17
2022-12-04T01:33:54.745Z,7.18
2022-12-04T01:36:40.051Z,7.33
2022-12-04T01:39:25.359Z,6.80
2022-12-04T01:42:15.629Z,6.87
2022-12-04T01:45:36.651Z,7.27
2022-12-04T01:48:30.940Z,6.70
2022-12-04T01:51:27.353Z,7.33
2022-12-04T01:54:22.883Z,7.30
2022-12-04T01:57:14.229Z,7.67
2022-12-04T02:00:05.394Z,7.07
2022-12-04T02:02:51.328Z,7.33
2022-12-04T02:05:36.830Z,7.40
2022-12-04T02:08:22.369Z,7.27
2022-12-04T02:11:42.152Z,7.33
2022-12-04T02:14:56.418Z,7.20
2022-12-04T02:17:59.995Z,7.60
2022-12-04T02:21:08.155Z,7.38
2022-12-04T02:24:02.239Z,8.20
2022-12-04T02:27:04.226Z,6.93
2022-12-04T02:29:59.495Z,7.53
2022-12-04T02:32:58.714Z,7.93
2022-12-04T02:36:03.374Z,7.60
2022-12-04T02:39:07.850Z,6.90
2022-12-04T02:42:03.596Z,7.27
2022-12-04T02:45:03.689Z,7.80
2022-12-04T02:47:49.371Z,7.27
2022-12-04T02:50:40.438Z,8.03
2022-12-04T02:53:32.667Z,7.73
2022-12-04T02:56:26.605Z,7.53
2022-12-04T02:59:20.524Z,7.37
2022-12-04T03:04:59.917Z,7.53
2022-12-04T03:07:52.436Z,7.43
2022-12-04T03:10:44.217Z,7.60
2022-12-04T03:13:34.196Z,7.20
2022-12-04T03:16:28.199Z,6.80
2022-12-04T03:19:21.279Z,7.70
2022-12-04T03:22:10.599Z,7.28
2022-12-04T03:24:57.416Z,7.03
2022-12-04T03:27:53.629Z,7.67
2022-12-04T03:30:50.021Z,7.67
2022-12-04T03:33:42.649Z,7.87
2022-12-04T03:36:34.801Z,7.80
2022-12-04T03:39:42.704Z,7.50
2022-12-04T03:42:53.309Z,7.40
2022-12-04T03:45:52.607Z,7.40
2022-12-04T03:49:29.789Z,7.97
2022-12-04T03:52:24.612Z,7.90
2022-12-04T03:55:43.515Z,7.33
2022-12-04T03:58:32.088Z,7.63
2022-12-04T04:01:23.160Z,8.17
2022-12-04T04:04:13.881Z,8.00
2022-12-04T04:07:12.180Z,7.63
2022-12-04T04:10:03.647Z,8.00
2022-12-04T04:13:14.728Z,7.70
2022-12-04T04:16:21.639Z,8.00
2022-12-04T04:19:27.884Z,7.30
2022-12-04T04:22:32.845Z,7.17
2022-12-04T04:25:24.332Z,7.70
2022-12-04T04:28:35.646Z,7.67
2022-12-04T04:31:50.343Z,7.77
2022-12-04T04:35:20.912Z,7.63
2022-12-04T04:38:06.435Z,7.77
2022-12-04T04:41:00.540Z,8.37
2022-12-04T04:44:08.378Z,7.57
2022-12-04T04:46:59.796Z,8.53
2022-12-04T04:49:47.511Z,7.77
2022-12-04T04:52:34.855Z,7.73
2022-12-04T04:55:21.018Z,7.63
2022-12-04T04:58:13.042Z,7.73
2022-12-04T05:01:04.983Z,7.57
2022-12-04T05:03:50.288Z,7.10
2022-12-04T05:06:35.464Z,7.93
2022-12-04T05:09:20.892Z,7.90
2022-12-04T05:12:06.418Z,7.63
2022-12-04T05:14:52.009Z,7.27
2022-12-04T05:17:37.552Z,7.23
2022-12-04T05:20:22.901Z,8.33
2022-12-04T05:23:08.344Z,7.97
2022-12-04T05:26:00.238Z,8.23
2022-12-04T05:28:45.705Z,7.27
2022-12-04T05:31:30.997Z,7.77
2022-12-04T05:34:16.109Z,7.73
2022-12-04T05:37:01.428Z,7.73
2022-12-04T05:39:47.123Z,8.13
2022-12-04T05:42:32.591Z,7.80
2022-12-04T05:45:18.122Z,7.60
2022-12-04T05:48:03.584Z,7.80
2022-12-04T05:50:48.927Z,7.47
2022-12-04T05:53:34.520Z,7.63
2022-12-04T05:56:20.296Z,8.10
2022-12-04T05:59:05.848Z,7.97
2022-12-04T06:01:51.139Z,8.40
2022-12-04T06:04:37.478Z,7.50
2022-12-04T06:07:22.868Z,7.53
2022-12-04T06:10:08.294Z,7.50
2022-12-04T06:12:57.725Z,8.23
2022-12-04T06:15:43.257Z,8.23
2022-12-04T06:18:28.458Z,7.50
2022-12-04T06:21:13.705Z,8.37
2022-12-04T06:23:59.096Z,8.33
2022-12-04T06:27:10.933Z,8.20
2022-12-04T06:29:50.294Z,9.17
2022-12-04T06:32:35.587Z,8.97
2022-12-04T06:35:20.853Z,10.07
2022-12-04T06:38:08.138Z,9.63
2022-12-04T06:40:53.639Z,9.10
2022-12-04T06:43:39.667Z,8.23
2022-12-04T06:46:28.460Z,9.70
2022-12-04T06:49:13.974Z,17.20
2022-12-04T06:51:59.469Z,11.90
2022-12-04T06:54:44.576Z,12.07
2022-12-04T06:57:29.780Z,12.90
2022-12-04T07:00:15.814Z,12.83
2022-12-04T07:03:01.005Z,12.77
2022-12-04T07:05:46.587Z,12.83
2022-12-04T07:08:32.177Z,15.80
2022-12-04T07:11:18.784Z,15.20
2022-12-04T07:14:04.804Z,14.50
2022-12-04T07:16:50.292Z,14.03
2022-12-04T07:19:35.522Z,14.63
2022-12-04T07:22:20.757Z,14.13
2022-12-04T07:25:06.194Z,14.50
2022-12-04T07:27:51.518Z,14.30
2022-12-04T07:30:38.401Z,13.73
2022-12-04T07:33:23.766Z,14.20
2022-12-04T07:36:13.411Z,13.70
2022-12-04T07:38:59.053Z,12.47
2022-12-04T07:41:44.172Z,13.03
2022-12-04T07:44:32.685Z,12.77
2022-12-04T07:47:17.864Z,13.03
2022-12-04T07:50:04.570Z,13.03
2022-12-04T07:52:50.262Z,13.03
2022-12-04T07:55:35.630Z,12.97
2022-12-04T07:58:21.148Z,12.63
2022-12-04T08:01:12.524Z,12.20
2022-12-04T08:03:59.490Z,13.43
2022-12-04T08:06:45.825Z,12.63
2022-12-04T08:09:31.417Z,13.03
2022-12-04T08:12:16.876Z,12.93
2022-12-04T08:15:02.233Z,14.13
2022-12-04T08:17:47.664Z,13.47
2022-12-04T08:20:32.976Z,13.83
2022-12-04T08:23:18.317Z,14.63
2022-12-04T08:26:05.380Z,13.50
2022-12-04T08:28:53.618Z,14.13
2022-12-04T08:31:39.338Z,14.97
2022-12-04T08:34:25.068Z,14.70
2022-12-04T08:37:10.587Z,15.63
2022-12-04T08:39:56.372Z,15.67
2022-12-04T08:42:41.936Z,15.50
2022-12-04T08:45:27.273Z,18.67
2022-12-04T08:48:12.331Z,17.20
2022-12-04T08:50:58.163Z,18.83
2022-12-04T08:53:43.750Z,19.53
2022-12-04T08:56:30.056Z,19.33
2022-12-04T08:59:15.694Z,20.93
2022-12-04T09:02:01.075Z,19.73
2022-12-04T09:04:46.291Z,19.87
2022-12-04T09:07:31.381Z,21.33
2022-12-04T09:10:16.728Z,20.70
2022-12-04T09:13:02.088Z,20.77
2022-12-04T09:15:47.494Z,21.07
2022-12-04T09:18:33.621Z,20.93
2022-12-04T09:21:21.309Z,20.33
2022-12-04T09:24:06.760Z,19.90
2022-12-04T09:26:52.169Z,19.90
2022-12-04T09:29:37.717Z,20.80
2022-12-04T09:32:23.752Z,19.50
2022-12-04T09:35:09.344Z,20.17
2022-12-04T09:37:54.701Z,20.63
2022-12-04T09:41:25.092Z,19.07
2022-12-04T09:44:20.049Z,19.47
2022-12-04T09:53:05.392Z,19.20
2022-12-04T09:56:04.181Z,19.60
2022-12-04T09:59:10.535Z,19.33
2022-12-04T10:02:00.031Z,22.10
2022-12-04T10:04:44.712Z,20.30
2022-12-04T10:07:44.501Z,19.93
2022-12-04T10:10:29.599Z,20.80
2022-12-04T11:22:57.267Z,52.13
2022-12-04T11:25:50.363Z,53.80
2022-12-04T11:28:42.424Z,54.63
2022-12-04T11:31:29.781Z,55.07
2022-12-04T11:34:22.504Z,56.17
2022-12-04T11:37:20.947Z,53.40
2022-12-04T11:40:17.129Z,51.50
2022-12-04T11:43:12.397Z,50.90
2022-12-04T11:46:00.916Z,48.83
2022-12-04T11:48:46.419Z,48.57
2022-12-04T11:51:47.156Z,49.00
2022-12-04T11:54:41.645Z,50.20
2022-12-04T11:57:47.685Z,50.77
2022-12-04T12:00:40.755Z,50.60
2022-12-04T12:03:49.057Z,49.72
2022-12-04T12:06:49.969Z,47.57
2022-12-04T12:10:10.332Z,48.83
2022-12-04T12:13:20.660Z,48.47
2022-12-04T12:16:21.012Z,46.60
2022-12-04T12:19:28.486Z,45.43
2022-12-04T12:22:28.590Z,44.67
2022-12-04T12:25:22.382Z,41.73
2022-12-04T12:28:35.442Z,43.67
2022-12-04T12:31:55.740Z,41.35
2022-12-04T12:34:43.207Z,39.53
2022-12-04T12:38:03.229Z,37.97
2022-12-04T12:46:22.034Z,37.07
2022-12-04T12:49:31.566Z,37.40
2022-12-04T12:52:29.851Z,37.07
2022-12-04T12:55:24.326Z,37.57
2022-12-04T12:58:08.712Z,36.57
2022-12-04T13:01:29.821Z,37.13
2022-12-04T13:04:34.620Z,38.27
2022-12-04T13:07:27.782Z,38.70
2022-12-04T13:13:06.887Z,34.53
2022-12-04T13:16:23.173Z,33.60
2022-12-04T13:19:29.940Z,33.97
2022-12-04T13:22:46.235Z,35.23
2022-12-04T13:25:47.075Z,33.63
2022-12-04T13:29:00.197Z,33.60
2022-12-04T13:32:22.534Z,34.03
2022-12-04T13:35:50.036Z,32.63
2022-12-04T13:38:38.320Z,35.13
2022-12-04T13:41:26.046Z,32.73
2022-12-04T13:44:14.688Z,32.23
2022-12-04T13:47:03.406Z,31.63
2022-12-04T13:49:49.209Z,31.63
2022-12-04T13:52:41.363Z,33.43
2022-12-04T13:55:39.360Z,33.42
2022-12-04T13:58:30.605Z,33.73
2022-12-04T14:01:28.823Z,33.07
2022-12-04T14:04:29.566Z,30.47
2022-12-04T14:07:25.711Z,29.97
2022-12-04T14:10:14.424Z,30.23
2022-12-04T14:13:05.903Z,29.87
2022-12-04T14:16:04.563Z,30.77
2022-12-04T14:18:54.050Z,27.80
2022-12-04T14:21:45.603Z,29.93
2022-12-04T14:24:37.227Z,31.20
2022-12-04T14:27:42.521Z,33.77
2022-12-04T14:30:39.282Z,32.80
2022-12-04T14:33:26.738Z,30.73
2022-12-04T14:36:19.161Z,32.63
2022-12-04T14:39:20.967Z,31.30
2022-12-04T14:42:13.482Z,29.70
2022-12-04T14:45:00.975Z,30.27
2022-12-04T14:48:15.651Z,27.67
2022-12-04T14:51:09.652Z,28.93
2022-12-04T14:54:07.605Z,27.60
2022-12-04T14:57:04.883Z,28.37
2022-12-04T14:59:53.626Z,27.37
2022-12-04T15:02:40.503Z,27.10
2022-12-04T15:05:29.371Z,27.33
2022-12-04T15:08:15.329Z,27.03
2022-12-04T15:11:19.214Z,26.47
2022-12-04T15:14:13.028Z,27.27
2022-12-04T15:17:04.807Z,25.80
2022-12-04T15:19:50.100Z,25.40
2022-12-04T15:22:35.556Z,25.63
2022-12-04T15:25:25.287Z,25.90
2022-12-04T15:28:18.427Z,26.07
2022-12-04T15:31:10.263Z,24.15
2022-12-04T15:34:00.653Z,24.83
2022-12-04T15:37:03.226Z,25.40
2022-12-04T15:39:50.823Z,25.43
2022-12-04T15:42:37.534Z,25.27
2022-12-04T15:45:34.799Z,25.00
2022-12-04T15:48:29.372Z,25.20
2022-12-04T15:51:18.975Z,26.63
2022-12-04T15:54:04.632Z,27.73
2022-12-04T15:57:01.129Z,27.80
2022-12-04T15:59:51.894Z,28.93
2022-12-04T16:02:42.870Z,28.87
2022-12-04T16:05:36.455Z,27.97
2022-12-04T16:08:25.412Z,26.13
2022-12-04T16:17:02.645Z,24.57
2022-12-04T16:19:50.784Z,24.53
2022-12-04T16:22:35.752Z,28.03
2022-12-04T16:25:20.482Z,26.40
2022-12-04T16:28:05.704Z,24.07
2022-12-04T16:30:54.225Z,24.20
2022-12-04T16:33:39.306Z,22.93
2022-12-04T17:45:28.958Z,27.87
2022-12-04T17:48:16.705Z,28.37
2022-12-04T17:51:23.076Z,29.27
2022-12-04T17:54:08.282Z,28.57
2022-12-04T17:56:57.787Z,27.80
2022-12-04T17:59:44.660Z,27.10
2022-12-04T18:02:30.312Z,27.33
2022-12-04T18:05:17.228Z,26.50
2022-12-04T18:08:02.617Z,24.90
2022-12-04T18:10:48.537Z,26.00
2022-12-04T18:13:34.605Z,24.03
2022-12-04T18:16:20.579Z,23.60
2022-12-04T18:19:07.816Z,23.63
2022-12-04T18:21:54.415Z,22.93
2022-12-04T18:24:40.106Z,22.87
2022-12-04T18:27:26.261Z,21.70
2022-12-04T18:30:12.357Z,22.50
2022-12-04T18:32:58.430Z,22.33
2022-12-04T18:35:44.048Z,20.53
2022-12-04T18:38:31.057Z,21.57
2022-12-04T18:41:16.460Z,22.07
2022-12-04T18:44:03.157Z,20.60
2022-12-04T18:46:48.441Z,21.43
2022-12-04T18:49:33.754Z,20.77
2022-12-04T19:00:41.322Z,20.47
2022-12-04T19:03:26.098Z,19.13
2022-12-04T19:06:12.245Z,19.00
2022-12-04T19:09:00.093Z,19.30
2022-12-04T19:11:45.623Z,19.67
2022-12-04T19:14:31.505Z,20.27
2022-12-04T19:17:16.948Z,19.43
2022-12-04T19:20:02.433Z,18.67
2022-12-04T19:22:47.948Z,18.57
2022-12-04T19:25:33.536Z,19.17
2022-12-04T19:28:18.927Z,18.00
2022-12-04T19:31:05.000Z,19.77
2022-12-04T19:33:51.124Z,19.67
2022-12-04T19:36:36.695Z,19.50
2022-12-04T19:39:22.505Z,21.10
2022-12-04T19:42:09.608Z,20.97
2022-12-04T19:44:56.585Z,19.37
2022-12-04T19:47:43.451Z,19.97
2022-12-04T19:50:29.305Z,20.07
2022-12-04T19:53:14.620Z,19.37
2022-12-04T19:56:05.546Z,18.57
2022-12-04T19:58:52.495Z,19.07
2022-12-04T20:01:38.601Z,18.03
2022-12-04T20:04:24.001Z,18.17
2022-12-04T20:07:09.388Z,18.80
2022-12-04T20:09:54.730Z,18.50
2022-12-04T20:12:40.824Z,18.27
2022-12-04T20:15:26.430Z,17.60
2022-12-04T20:18:11.932Z,18.33
2022-12-04T20:20:59.055Z,18.60
2022-12-04T20:23:50.646Z,17.77
2022-12-04T20:26:39.086Z,17.63
2022-12-04T20:29:24.889Z,17.77
2022-12-04T20:32:10.566Z,17.87
2022-12-04T20:34:55.840Z,16.57
2022-12-04T20:37:41.421Z,16.97
2022-12-04T20:40:26.851Z,17.17
2022-12-04T20:43:12.776Z,17.33
2022-12-04T20:45:58.191Z,17.10
2022-12-04T20:48:48.285Z,17.23
2022-12-04T20:51:39.015Z,16.77
2022-12-04T20:54:25.501Z,17.43
2022-12-04T20:57:10.977Z,16.20
2022-12-04T20:59:57.099Z,16.87
2022-12-04T21:02:43.658Z,15.97
2022-12-04T21:05:29.183Z,15.43
2022-12-04T21:08:14.607Z,16.10
2022-12-04T21:10:59.774Z,17.00
2022-12-04T21:14:03.517Z,15.17
2022-12-04T21:16:49.848Z,16.47
2022-12-04T21:19:35.249Z,15.60
2022-12-04T21:22:21.163Z,15.47
2022-12-04T21:25:08.950Z,15.27
2022-12-04T21:27:54.908Z,15.57
2022-12-04T21:30:40.205Z,15.37
2022-12-04T21:33:25.893Z,15.00
2022-12-04T21:36:11.529Z,14.87
2022-12-04T21:38:57.253Z,15.70
2022-12-04T21:42:01.027Z,15.03
2022-12-04T21:44:46.864Z,14.77
2022-12-04T21:47:32.910Z,15.30
2022-12-04T21:50:18.496Z,14.47
2022-12-04T21:53:03.916Z,14.73
2022-12-04T21:55:55.949Z,14.93
2022-12-04T21:58:41.880Z,14.40
2022-12-04T22:01:28.456Z,14.50
2022-12-04T22:04:13.927Z,13.63
2022-12-04T22:06:59.380Z,14.07
2022-12-04T22:09:44.931Z,14.57
2022-12-04T22:15:39.072Z,13.77
2022-12-04T22:18:24.835Z,14.10
2022-12-04T22:21:14.573Z,13.77
2022-12-04T22:24:01.868Z,12.83
2022-12-04T22:26:47.225Z,13.73
2022-12-04T22:32:37.944Z,12.50
2022-12-04T22:35:24.306Z,12.90
2022-12-04T22:38:09.934Z,12.23
2022-12-04T22:40:55.110Z,12.47
2022-12-04T22:43:41.149Z,12.97
2022-12-04T22:46:26.413Z,12.40
2022-12-04T22:49:11.723Z,13.23
2022-12-04T22:51:57.157Z,13.30
2022-12-04T22:54:42.480Z,12.57
2022-12-04T22:57:28.381Z,12.03
2022-12-04T23:00:14.265Z,11.40
2022-12-04T23:02:59.787Z,12.20
2022-12-04T23:05:45.037Z,13.20
2022-12-04T23:08:30.573Z,12.30
2022-12-04T23:11:19.320Z,12.43
2022-12-04T23:14:06.989Z,12.03
2022-12-04T23:16:52.488Z,11.80
2022-12-04T23:19:38.441Z,11.73
2022-12-04T23:22:23.877Z,11.60
2022-12-04T23:25:09.375Z,11.80
2022-12-04T23:27:54.961Z,11.73
2022-12-04T23:30:45.636Z,11.90
2022-12-04T23:33:32.292Z,11.90
2022-12-04T23:36:17.879Z,11.00
2022-12-04T23:39:03.596Z,11.33
2022-12-04T23:41:49.185Z,11.17
2022-12-04T23:44:34.731Z,11.77
2022-12-04T23:47:20.083Z,11.20
2022-12-04T23:50:05.922Z,10.47
2022-12-04T23:52:51.323Z,10.77
2022-12-04T23:55:36.521Z,10.60
2022-12-04T23:58:21.694Z,10.80
